Current Weather

Fitchburg Municipal Arp

Fitchburg Municipal Arp, Massachusetts (KFIT)

Report from: Sunday, May 22, 2022 2:52 AM EDT
Current time: Sunday, May 22, 2022 3:25 AM EDT

Nearby weather
Weather history
Weather forecast

Temperature23.3°C (73.9°F)
Dew point17.8°C (64.0°F)
Winds 5 kts (2.6 m/s, 5.8 mph) North-Northeast (20°)
Visibility10 mi. (16.1 km)
Clouds Sky clear
Altimeter29.98 in.Hg (1015 mB)
Relative humidity71 %
Density altitude1,176 ft. (358 m)
Sea-level pressure101.5 kPa (1015 mB, 29.97 in.Hg)
Remarks Fully automated report
Automated weather observing station with precipitation discriminator
Lightning detection system not operating
Flight conditions Visual Meteorological Conditions
Raw dataKFIT 220652Z AUTO 02005KT 10SM CLR 23/18 A2998 RMK AO2 SLP150 T02330178 TSNO
An error has occurred. This application may no longer respond until reloaded. Reload 🗙